sensor_id;sensor_type;location;lat;lon;timestamp;P1;durP1;ratioP1;P2;durP2;ratioP2
46377;SDS011;32083;47.360;9.650;2023-04-03T00:02:22;0.57;;;0.57;;
46377;SDS011;32083;47.360;9.650;2023-04-03T00:05:22;0.55;;;0.55;;
46377;SDS011;32083;47.360;9.650;2023-04-03T00:08:38;1.02;;;0.63;;
46377;SDS011;32083;47.360;9.650;2023-04-03T00:17:53;1.00;;;0.90;;
46377;SDS011;32083;47.360;9.650;2023-04-03T00:21:49;1.10;;;0.80;;
46377;SDS011;32083;47.360;9.650;2023-04-03T00:24:39;1.40;;;1.00;;
46377;SDS011;32083;47.360;9.650;2023-04-03T00:27:28;0.80;;;0.75;;
46377;SDS011;32083;47.360;9.650;2023-04-03T00:30:35;1.35;;;0.90;;
46377;SDS011;32083;47.360;9.650;2023-04-03T00:33:49;1.25;;;1.00;;
46377;SDS011;32083;47.360;9.650;2023-04-03T00:37:05;1.50;;;0.90;;
46377;SDS011;32083;47.360;9.650;2023-04-03T00:43:26;1.20;;;1.10;;
46377;SDS011;32083;47.360;9.650;2023-04-03T00:46:15;2.45;;;1.00;;
46377;SDS011;32083;47.360;9.650;2023-04-03T00:48:50;0.85;;;0.77;;
46377;SDS011;32083;47.360;9.650;2023-04-03T00:51:43;0.93;;;0.75;;
46377;SDS011;32083;47.360;9.650;2023-04-03T00:54:57;1.20;;;0.70;;
46377;SDS011;32083;47.360;9.650;2023-04-03T00:58:06;0.95;;;0.70;;
46377;SDS011;32083;47.360;9.650;2023-04-03T01:04:36;1.20;;;1.00;;
46377;SDS011;32083;47.360;9.650;2023-04-03T01:08:22;2.10;;;1.20;;
46377;SDS011;32083;47.360;9.650;2023-04-03T01:11:33;1.90;;;1.60;;
46377;SDS011;32083;47.360;9.650;2023-04-03T01:14:36;1.47;;;1.20;;
46377;SDS011;32083;47.360;9.650;2023-04-03T01:27:15;1.38;;;1.20;;
46377;SDS011;32083;47.360;9.650;2023-04-03T01:30:35;1.95;;;1.67;;
46377;SDS011;32083;47.360;9.650;2023-04-03T01:34:02;1.65;;;1.55;;
46377;SDS011;32083;47.360;9.650;2023-04-03T01:39:56;2.28;;;1.90;;
46377;SDS011;32083;47.360;9.650;2023-04-03T01:45:45;2.05;;;1.85;;
46377;SDS011;32083;47.360;9.650;2023-04-03T01:49:01;2.83;;;2.28;;
46377;SDS011;32083;47.360;9.650;2023-04-03T01:51:57;2.08;;;1.88;;
46377;SDS011;32083;47.360;9.650;2023-04-03T01:54:42;2.33;;;2.03;;
46377;SDS011;32083;47.360;9.650;2023-04-03T02:00:53;2.88;;;2.13;;
46377;SDS011;32083;47.360;9.650;2023-04-03T02:03:47;2.90;;;2.40;;
46377;SDS011;32083;47.360;9.650;2023-04-03T02:06:33;3.20;;;2.90;;
46377;SDS011;32083;47.360;9.650;2023-04-03T02:12:52;3.35;;;2.72;;
46377;SDS011;32083;47.360;9.650;2023-04-03T02:16:13;3.50;;;3.20;;
46377;SDS011;32083;47.360;9.650;2023-04-03T02:19:15;3.83;;;3.13;;
46377;SDS011;32083;47.360;9.650;2023-04-03T02:22:13;3.50;;;3.20;;
46377;SDS011;32083;47.360;9.650;2023-04-03T02:25:26;4.85;;;3.83;;
46377;SDS011;32083;47.360;9.650;2023-04-03T02:33:34;4.85;;;4.32;;
46377;SDS011;32083;47.360;9.650;2023-04-03T02:36:35;4.10;;;3.70;;
46377;SDS011;32083;47.360;9.650;2023-04-03T02:39:04;5.68;;;4.85;;
46377;SDS011;32083;47.360;9.650;2023-04-03T02:44:12;5.38;;;4.63;;
46377;SDS011;32083;47.360;9.650;2023-04-03T02:47:12;4.68;;;4.18;;
46377;SDS011;32083;47.360;9.650;2023-04-03T02:50:00;4.68;;;4.28;;
46377;SDS011;32083;47.360;9.650;2023-04-03T02:56:01;4.97;;;4.47;;
46377;SDS011;32083;47.360;9.650;2023-04-03T03:03:03;5.63;;;5.07;;
46377;SDS011;32083;47.360;9.650;2023-04-03T03:06:04;6.03;;;5.28;;
46377;SDS011;32083;47.360;9.650;2023-04-03T03:08:46;5.53;;;4.90;;
46377;SDS011;32083;47.360;9.650;2023-04-03T03:11:31;8.73;;;5.15;;
46377;SDS011;32083;47.360;9.650;2023-04-03T03:14:16;5.15;;;4.65;;
46377;SDS011;32083;47.360;9.650;2023-04-03T03:17:26;6.38;;;5.22;;
46377;SDS011;32083;47.360;9.650;2023-04-03T03:23:34;6.50;;;5.75;;
46377;SDS011;32083;47.360;9.650;2023-04-03T03:29:01;6.88;;;5.50;;
46377;SDS011;32083;47.360;9.650;2023-04-03T03:31:51;6.50;;;5.82;;
46377;SDS011;32083;47.360;9.650;2023-04-03T03:34:48;6.63;;;5.78;;
46377;SDS011;32083;47.360;9.650;2023-04-03T03:37:56;6.88;;;6.05;;
46377;SDS011;32083;47.360;9.650;2023-04-03T03:40:41;7.80;;;6.32;;
46377;SDS011;32083;47.360;9.650;2023-04-03T03:46:45;7.50;;;6.63;;
46377;SDS011;32083;47.360;9.650;2023-04-03T03:50:12;8.60;;;7.50;;
46377;SDS011;32083;47.360;9.650;2023-04-03T03:55:34;7.82;;;6.45;;
46377;SDS011;32083;47.360;9.650;2023-04-03T03:58:40;7.30;;;5.90;;
46377;SDS011;32083;47.360;9.650;2023-04-03T04:02:01;8.50;;;6.88;;
46377;SDS011;32083;47.360;9.650;2023-04-03T04:04:56;8.30;;;6.50;;
46377;SDS011;32083;47.360;9.650;2023-04-03T04:08:07;8.52;;;6.30;;
46377;SDS011;32083;47.360;9.650;2023-04-03T04:11:00;7.53;;;6.60;;
46377;SDS011;32083;47.360;9.650;2023-04-03T04:14:15;7.75;;;6.80;;
46377;SDS011;32083;47.360;9.650;2023-04-03T04:17:19;8.23;;;6.65;;
46377;SDS011;32083;47.360;9.650;2023-04-03T04:27:54;7.70;;;6.53;;
46377;SDS011;32083;47.360;9.650;2023-04-03T04:30:20;7.88;;;7.07;;
46377;SDS011;32083;47.360;9.650;2023-04-03T04:32:46;7.32;;;6.63;;
46377;SDS011;32083;47.360;9.650;2023-04-03T04:35:12;7.72;;;6.75;;
46377;SDS011;32083;47.360;9.650;2023-04-03T04:37:38;7.18;;;6.47;;
46377;SDS011;32083;47.360;9.650;2023-04-03T04:40:04;9.52;;;6.93;;
46377;SDS011;32083;47.360;9.650;2023-04-03T04:42:31;8.40;;;7.50;;
46377;SDS011;32083;47.360;9.650;2023-04-03T04:44:57;8.98;;;7.75;;
46377;SDS011;32083;47.360;9.650;2023-04-03T04:47:22;11.02;;;7.95;;
46377;SDS011;32083;47.360;9.650;2023-04-03T04:49:48;8.93;;;8.00;;
46377;SDS011;32083;47.360;9.650;2023-04-03T04:52:15;9.88;;;7.50;;
46377;SDS011;32083;47.360;9.650;2023-04-03T04:54:41;9.32;;;8.27;;
46377;SDS011;32083;47.360;9.650;2023-04-03T04:57:07;9.82;;;8.45;;
46377;SDS011;32083;47.360;9.650;2023-04-03T04:59:33;10.02;;;7.30;;
46377;SDS011;32083;47.360;9.650;2023-04-03T05:01:59;9.45;;;8.38;;
46377;SDS011;32083;47.360;9.650;2023-04-03T05:04:25;8.18;;;7.38;;
46377;SDS011;32083;47.360;9.650;2023-04-03T05:06:51;7.50;;;6.80;;
46377;SDS011;32083;47.360;9.650;2023-04-03T05:09:17;7.95;;;7.10;;
46377;SDS011;32083;47.360;9.650;2023-04-03T05:11:45;8.98;;;7.90;;
46377;SDS011;32083;47.360;9.650;2023-04-03T05:14:11;9.13;;;7.75;;
46377;SDS011;32083;47.360;9.650;2023-04-03T05:16:37;9.38;;;7.15;;
46377;SDS011;32083;47.360;9.650;2023-04-03T05:19:04;7.72;;;6.93;;
46377;SDS011;32083;47.360;9.650;2023-04-03T05:21:30;9.68;;;8.68;;
46377;SDS011;32083;47.360;9.650;2023-04-03T05:24:00;8.57;;;7.68;;
46377;SDS011;32083;47.360;9.650;2023-04-03T05:26:28;10.85;;;8.38;;
46377;SDS011;32083;47.360;9.650;2023-04-03T05:28:55;9.57;;;8.68;;
46377;SDS011;32083;47.360;9.650;2023-04-03T05:31:21;9.05;;;8.07;;
46377;SDS011;32083;47.360;9.650;2023-04-03T05:33:48;10.85;;;8.82;;
46377;SDS011;32083;47.360;9.650;2023-04-03T05:36:14;10.25;;;7.88;;
46377;SDS011;32083;47.360;9.650;2023-04-03T05:38:40;12.88;;;8.75;;
46377;SDS011;32083;47.360;9.650;2023-04-03T05:41:06;12.00;;;9.13;;
46377;SDS011;32083;47.360;9.650;2023-04-03T05:43:32;9.07;;;8.18;;
46377;SDS011;32083;47.360;9.650;2023-04-03T05:45:59;10.57;;;8.90;;
46377;SDS011;32083;47.360;9.650;2023-04-03T05:48:25;10.20;;;8.25;;
46377;SDS011;32083;47.360;9.650;2023-04-03T05:50:51;14.82;;;9.77;;
46377;SDS011;32083;47.360;9.650;2023-04-03T05:53:18;10.77;;;8.80;;
46377;SDS011;32083;47.360;9.650;2023-04-03T05:55:47;11.10;;;7.93;;
46377;SDS011;32083;47.360;9.650;2023-04-03T05:58:13;12.18;;;9.57;;
46377;SDS011;32083;47.360;9.650;2023-04-03T06:00:39;9.55;;;8.55;;
46377;SDS011;32083;47.360;9.650;2023-04-03T06:03:05;9.32;;;8.32;;
46377;SDS011;32083;47.360;9.650;2023-04-03T06:05:31;11.20;;;9.20;;
46377;SDS011;32083;47.360;9.650;2023-04-03T06:07:57;9.80;;;8.57;;
46377;SDS011;32083;47.360;9.650;2023-04-03T06:10:24;14.50;;;10.32;;
46377;SDS011;32083;47.360;9.650;2023-04-03T06:12:50;10.48;;;8.43;;
46377;SDS011;32083;47.360;9.650;2023-04-03T06:15:16;9.85;;;8.77;;
46377;SDS011;32083;47.360;9.650;2023-04-03T06:17:42;10.32;;;8.95;;
46377;SDS011;32083;47.360;9.650;2023-04-03T06:20:09;11.63;;;9.80;;
46377;SDS011;32083;47.360;9.650;2023-04-03T06:22:35;11.98;;;9.82;;
46377;SDS011;32083;47.360;9.650;2023-04-03T06:25:02;15.00;;;9.85;;
46377;SDS011;32083;47.360;9.650;2023-04-03T06:27:28;14.20;;;10.18;;
46377;SDS011;32083;47.360;9.650;2023-04-03T06:29:55;11.75;;;10.55;;
46377;SDS011;32083;47.360;9.650;2023-04-03T06:32:21;10.27;;;9.27;;
46377;SDS011;32083;47.360;9.650;2023-04-03T06:34:47;11.05;;;9.82;;
46377;SDS011;32083;47.360;9.650;2023-04-03T06:37:20;11.52;;;9.32;;
46377;SDS011;32083;47.360;9.650;2023-04-03T06:39:47;12.07;;;9.85;;
46377;SDS011;32083;47.360;9.650;2023-04-03T06:42:13;11.65;;;9.70;;
46377;SDS011;32083;47.360;9.650;2023-04-03T06:44:39;11.13;;;9.88;;
46377;SDS011;32083;47.360;9.650;2023-04-03T06:47:05;13.38;;;9.60;;
46377;SDS011;32083;47.360;9.650;2023-04-03T06:49:31;11.88;;;10.02;;
46377;SDS011;32083;47.360;9.650;2023-04-03T06:51:57;11.38;;;9.48;;
46377;SDS011;32083;47.360;9.650;2023-04-03T06:54:23;10.07;;;9.07;;
46377;SDS011;32083;47.360;9.650;2023-04-03T06:56:50;12.00;;;9.77;;
46377;SDS011;32083;47.360;9.650;2023-04-03T06:59:16;10.77;;;8.90;;
46377;SDS011;32083;47.360;9.650;2023-04-03T07:01:42;10.50;;;9.27;;
46377;SDS011;32083;47.360;9.650;2023-04-03T07:04:08;11.38;;;9.15;;
46377;SDS011;32083;47.360;9.650;2023-04-03T07:06:34;13.40;;;9.82;;
46377;SDS011;32083;47.360;9.650;2023-04-03T07:09:00;10.45;;;8.88;;
46377;SDS011;32083;47.360;9.650;2023-04-03T07:11:27;11.02;;;8.55;;
46377;SDS011;32083;47.360;9.650;2023-04-03T07:13:53;10.70;;;9.00;;
46377;SDS011;32083;47.360;9.650;2023-04-03T07:16:20;11.00;;;9.38;;
46377;SDS011;32083;47.360;9.650;2023-04-03T07:18:46;11.57;;;8.65;;
46377;SDS011;32083;47.360;9.650;2023-04-03T07:21:12;11.57;;;9.32;;
46377;SDS011;32083;47.360;9.650;2023-04-03T07:23:38;11.90;;;8.77;;
46377;SDS011;32083;47.360;9.650;2023-04-03T07:26:04;11.68;;;9.25;;
46377;SDS011;32083;47.360;9.650;2023-04-03T07:28:32;8.52;;;7.32;;
46377;SDS011;32083;47.360;9.650;2023-04-03T07:31:05;9.93;;;8.45;;
46377;SDS011;32083;47.360;9.650;2023-04-03T07:33:33;11.40;;;8.20;;
46377;SDS011;32083;47.360;9.650;2023-04-03T07:36:01;10.73;;;9.63;;
46377;SDS011;32083;47.360;9.650;2023-04-03T07:38:27;11.55;;;8.25;;
46377;SDS011;32083;47.360;9.650;2023-04-03T07:40:53;12.68;;;11.38;;
46377;SDS011;32083;47.360;9.650;2023-04-03T07:43:19;13.20;;;11.30;;
46377;SDS011;32083;47.360;9.650;2023-04-03T07:45:46;12.30;;;11.05;;
46377;SDS011;32083;47.360;9.650;2023-04-03T07:48:17;12.05;;;10.82;;
46377;SDS011;32083;47.360;9.650;2023-04-03T07:50:44;11.23;;;9.95;;
46377;SDS011;32083;47.360;9.650;2023-04-03T07:53:11;14.75;;;10.88;;
46377;SDS011;32083;47.360;9.650;2023-04-03T07:55:37;13.52;;;11.38;;
46377;SDS011;32083;47.360;9.650;2023-04-03T07:58:11;13.35;;;10.60;;
46377;SDS011;32083;47.360;9.650;2023-04-03T08:00:39;12.80;;;10.85;;
46377;SDS011;32083;47.360;9.650;2023-04-03T08:03:06;13.73;;;10.43;;
46377;SDS011;32083;47.360;9.650;2023-04-03T08:05:38;16.77;;;10.07;;
46377;SDS011;32083;47.360;9.650;2023-04-03T08:08:05;12.02;;;10.80;;
46377;SDS011;32083;47.360;9.650;2023-04-03T08:10:32;10.55;;;9.23;;
46377;SDS011;32083;47.360;9.650;2023-04-03T08:12:59;11.60;;;10.40;;
46377;SDS011;32083;47.360;9.650;2023-04-03T08:15:26;15.45;;;12.20;;
46377;SDS011;32083;47.360;9.650;2023-04-03T08:17:52;16.75;;;14.48;;
46377;SDS011;32083;47.360;9.650;2023-04-03T08:20:19;13.88;;;12.05;;
46377;SDS011;32083;47.360;9.650;2023-04-03T08:22:45;10.20;;;9.10;;
46377;SDS011;32083;47.360;9.650;2023-04-03T08:25:11;15.63;;;10.90;;
46377;SDS011;32083;47.360;9.650;2023-04-03T08:27:37;12.48;;;10.60;;
46377;SDS011;32083;47.360;9.650;2023-04-03T08:30:03;14.50;;;10.63;;
46377;SDS011;32083;47.360;9.650;2023-04-03T08:32:30;13.82;;;12.35;;
46377;SDS011;32083;47.360;9.650;2023-04-03T08:34:55;11.43;;;10.18;;
46377;SDS011;32083;47.360;9.650;2023-04-03T08:37:21;10.63;;;9.32;;
46377;SDS011;32083;47.360;9.650;2023-04-03T08:39:47;14.07;;;10.38;;
46377;SDS011;32083;47.360;9.650;2023-04-03T08:45:12;9.82;;;8.82;;
46377;SDS011;32083;47.360;9.650;2023-04-03T08:47:55;10.73;;;8.95;;
46377;SDS011;32083;47.360;9.650;2023-04-03T08:50:36;12.30;;;10.73;;
46377;SDS011;32083;47.360;9.650;2023-04-03T08:53:14;14.35;;;9.68;;
46377;SDS011;32083;47.360;9.650;2023-04-03T08:55:50;12.02;;;9.48;;
46377;SDS011;32083;47.360;9.650;2023-04-03T09:00:48;14.77;;;10.70;;
46377;SDS011;32083;47.360;9.650;2023-04-03T09:03:15;11.02;;;9.05;;
46377;SDS011;32083;47.360;9.650;2023-04-03T09:08:23;12.38;;;9.75;;
46377;SDS011;32083;47.360;9.650;2023-04-03T09:10:59;12.55;;;9.93;;
46377;SDS011;32083;47.360;9.650;2023-04-03T09:13:44;13.05;;;8.88;;
46377;SDS011;32083;47.360;9.650;2023-04-03T09:22:17;8.00;;;6.88;;
46377;SDS011;32083;47.360;9.650;2023-04-03T09:24:59;10.65;;;8.43;;
46377;SDS011;32083;47.360;9.650;2023-04-03T09:27:26;9.75;;;8.75;;
46377;SDS011;32083;47.360;9.650;2023-04-03T09:29:53;8.52;;;7.15;;
46377;SDS011;32083;47.360;9.650;2023-04-03T09:32:25;11.98;;;8.70;;
46377;SDS011;32083;47.360;9.650;2023-04-03T09:34:51;13.45;;;8.00;;
46377;SDS011;32083;47.360;9.650;2023-04-03T09:37:33;8.35;;;7.47;;
46377;SDS011;32083;47.360;9.650;2023-04-03T09:43:01;10.60;;;7.78;;
46377;SDS011;32083;47.360;9.650;2023-04-03T09:45:44;9.15;;;7.20;;
46377;SDS011;32083;47.360;9.650;2023-04-03T09:53:27;15.38;;;9.25;;
46377;SDS011;32083;47.360;9.650;2023-04-03T09:56:02;17.45;;;10.10;;
46377;SDS011;32083;47.360;9.650;2023-04-03T09:58:37;10.70;;;8.23;;
46377;SDS011;32083;47.360;9.650;2023-04-03T10:01:08;10.65;;;6.05;;
46377;SDS011;32083;47.360;9.650;2023-04-03T10:04:01;10.15;;;4.97;;
46377;SDS011;32083;47.360;9.650;2023-04-03T10:06:31;10.40;;;8.15;;
46377;SDS011;32083;47.360;9.650;2023-04-03T10:09:05;8.93;;;7.43;;
46377;SDS011;32083;47.360;9.650;2023-04-03T10:11:53;13.98;;;8.82;;
46377;SDS011;32083;47.360;9.650;2023-04-03T10:14:28;11.73;;;8.05;;
46377;SDS011;32083;47.360;9.650;2023-04-03T10:20:02;8.27;;;7.40;;
46377;SDS011;32083;47.360;9.650;2023-04-03T10:25:39;7.38;;;6.68;;
46377;SDS011;32083;47.360;9.650;2023-04-03T10:30:47;7.78;;;6.78;;
46377;SDS011;32083;47.360;9.650;2023-04-03T10:33:27;7.78;;;6.75;;
46377;SDS011;32083;47.360;9.650;2023-04-03T10:36:21;7.45;;;5.57;;
46377;SDS011;32083;47.360;9.650;2023-04-03T10:39:11;9.07;;;6.32;;
46377;SDS011;32083;47.360;9.650;2023-04-03T10:44:42;7.22;;;6.05;;
46377;SDS011;32083;47.360;9.650;2023-04-03T10:47:45;10.48;;;6.22;;
46377;SDS011;32083;47.360;9.650;2023-04-03T10:50:25;8.30;;;6.15;;
46377;SDS011;32083;47.360;9.650;2023-04-03T10:56:15;6.30;;;5.55;;
46377;SDS011;32083;47.360;9.650;2023-04-03T10:58:54;6.03;;;4.97;;
46377;SDS011;32083;47.360;9.650;2023-04-03T11:01:29;7.65;;;5.05;;
46377;SDS011;32083;47.360;9.650;2023-04-03T11:03:59;6.70;;;5.30;;
46377;SDS011;32083;47.360;9.650;2023-04-03T11:06:48;6.50;;;5.53;;
46377;SDS011;32083;47.360;9.650;2023-04-03T11:09:22;8.02;;;6.25;;
46377;SDS011;32083;47.360;9.650;2023-04-03T11:11:53;11.07;;;9.85;;
46377;SDS011;32083;47.360;9.650;2023-04-03T11:22:26;7.00;;;5.90;;
46377;SDS011;32083;47.360;9.650;2023-04-03T11:25:04;5.57;;;5.03;;
46377;SDS011;32083;47.360;9.650;2023-04-03T11:27:42;6.30;;;5.63;;
46377;SDS011;32083;47.360;9.650;2023-04-03T11:30:22;7.32;;;6.55;;
46377;SDS011;32083;47.360;9.650;2023-04-03T11:35:31;5.68;;;4.97;;
46377;SDS011;32083;47.360;9.650;2023-04-03T11:37:59;6.93;;;4.95;;
46377;SDS011;32083;47.360;9.650;2023-04-03T11:40:31;6.97;;;6.28;;
46377;SDS011;32083;47.360;9.650;2023-04-03T11:50:44;6.65;;;6.05;;
46377;SDS011;32083;47.360;9.650;2023-04-03T11:55:44;11.77;;;6.57;;
46377;SDS011;32083;47.360;9.650;2023-04-03T11:58:20;6.97;;;5.70;;
46377;SDS011;32083;47.360;9.650;2023-04-03T12:00:56;37.15;;;8.75;;
46377;SDS011;32083;47.360;9.650;2023-04-03T12:46:12;8.32;;;5.20;;
46377;SDS011;32083;47.360;9.650;2023-04-03T12:51:38;10.48;;;4.95;;
46377;SDS011;32083;47.360;9.650;2023-04-03T12:54:14;4.88;;;4.03;;
46377;SDS011;32083;47.360;9.650;2023-04-03T12:56:46;5.80;;;4.30;;
46377;SDS011;32083;47.360;9.650;2023-04-03T12:59:23;3.90;;;3.20;;
46377;SDS011;32083;47.360;9.650;2023-04-03T13:01:58;9.68;;;4.10;;
46377;SDS011;32083;47.360;9.650;2023-04-03T13:04:25;15.80;;;4.40;;
46377;SDS011;32083;47.360;9.650;2023-04-03T13:06:53;4.22;;;3.47;;
46377;SDS011;32083;47.360;9.650;2023-04-03T13:09:21;7.93;;;3.92;;
46377;SDS011;32083;47.360;9.650;2023-04-03T13:17:03;11.18;;;3.58;;
46377;SDS011;32083;47.360;9.650;2023-04-03T13:19:36;6.45;;;3.33;;
46377;SDS011;32083;47.360;9.650;2023-04-03T13:22:04;6.93;;;3.13;;
46377;SDS011;32083;47.360;9.650;2023-04-03T13:24:44;12.45;;;3.97;;
46377;SDS011;32083;47.360;9.650;2023-04-03T13:27:13;2.97;;;2.70;;
46377;SDS011;32083;47.360;9.650;2023-04-03T13:29:40;4.32;;;2.80;;
46377;SDS011;32083;47.360;9.650;2023-04-03T13:32:06;6.43;;;2.55;;
46377;SDS011;32083;47.360;9.650;2023-04-03T13:34:37;2.83;;;2.30;;
46377;SDS011;32083;47.360;9.650;2023-04-03T13:39:34;4.80;;;2.72;;
46377;SDS011;32083;47.360;9.650;2023-04-03T13:42:14;2.72;;;2.08;;
46377;SDS011;32083;47.360;9.650;2023-04-03T13:44:42;3.38;;;2.30;;
46377;SDS011;32083;47.360;9.650;2023-04-03T13:50:13;3.60;;;2.60;;
46377;SDS011;32083;47.360;9.650;2023-04-03T13:52:48;3.00;;;2.47;;
46377;SDS011;32083;47.360;9.650;2023-04-03T13:55:21;4.43;;;2.53;;
46377;SDS011;32083;47.360;9.650;2023-04-03T14:04:11;3.03;;;2.47;;
46377;SDS011;32083;47.360;9.650;2023-04-03T14:06:04;3.17;;;2.88;;
46377;SDS011;32083;47.360;9.650;2023-04-03T14:08:31;3.17;;;2.63;;
46377;SDS011;32083;47.360;9.650;2023-04-03T14:10:57;4.13;;;2.75;;
46377;SDS011;32083;47.360;9.650;2023-04-03T14:13:23;4.72;;;2.38;;
46377;SDS011;32083;47.360;9.650;2023-04-03T14:15:49;3.92;;;2.28;;
46377;SDS011;32083;47.360;9.650;2023-04-03T14:18:17;6.88;;;2.90;;
46377;SDS011;32083;47.360;9.650;2023-04-03T14:20:46;3.13;;;2.42;;
46377;SDS011;32083;47.360;9.650;2023-04-03T14:23:13;3.50;;;2.80;;
46377;SDS011;32083;47.360;9.650;2023-04-03T14:25:39;4.13;;;2.58;;
46377;SDS011;32083;47.360;9.650;2023-04-03T14:28:14;2.92;;;2.67;;
46377;SDS011;32083;47.360;9.650;2023-04-03T14:30:46;3.90;;;2.75;;
46377;SDS011;32083;47.360;9.650;2023-04-03T14:33:14;4.30;;;2.75;;
46377;SDS011;32083;47.360;9.650;2023-04-03T14:35:46;3.35;;;2.80;;
46377;SDS011;32083;47.360;9.650;2023-04-03T14:38:24;3.25;;;2.65;;
46377;SDS011;32083;47.360;9.650;2023-04-03T14:40:52;3.15;;;2.70;;
46377;SDS011;32083;47.360;9.650;2023-04-03T14:43:18;4.65;;;3.25;;
46377;SDS011;32083;47.360;9.650;2023-04-03T14:45:45;4.68;;;2.85;;
46377;SDS011;32083;47.360;9.650;2023-04-03T14:48:30;4.47;;;2.63;;
46377;SDS011;32083;47.360;9.650;2023-04-03T14:50:56;3.08;;;2.67;;
46377;SDS011;32083;47.360;9.650;2023-04-03T14:53:22;3.17;;;2.53;;
46377;SDS011;32083;47.360;9.650;2023-04-03T14:55:50;5.30;;;3.15;;
46377;SDS011;32083;47.360;9.650;2023-04-03T14:58:17;2.90;;;2.60;;
46377;SDS011;32083;47.360;9.650;2023-04-03T15:00:44;8.98;;;3.53;;
46377;SDS011;32083;47.360;9.650;2023-04-03T15:03:18;5.63;;;2.65;;
46377;SDS011;32083;47.360;9.650;2023-04-03T15:05:46;3.15;;;2.85;;
46377;SDS011;32083;47.360;9.650;2023-04-03T15:08:21;3.88;;;3.58;;
46377;SDS011;32083;47.360;9.650;2023-04-03T15:10:49;2.92;;;2.60;;
46377;SDS011;32083;47.360;9.650;2023-04-03T15:13:17;3.80;;;2.80;;
46377;SDS011;32083;47.360;9.650;2023-04-03T15:15:44;4.40;;;2.88;;
46377;SDS011;32083;47.360;9.650;2023-04-03T15:18:30;3.38;;;2.80;;
46377;SDS011;32083;47.360;9.650;2023-04-03T15:21:02;5.18;;;3.28;;
46377;SDS011;32083;47.360;9.650;2023-04-03T15:23:29;3.35;;;2.60;;
46377;SDS011;32083;47.360;9.650;2023-04-03T15:25:55;3.28;;;2.97;;
46377;SDS011;32083;47.360;9.650;2023-04-03T15:28:23;3.50;;;3.17;;
46377;SDS011;32083;47.360;9.650;2023-04-03T15:30:57;5.90;;;3.22;;
46377;SDS011;32083;47.360;9.650;2023-04-03T15:33:23;4.65;;;2.85;;
46377;SDS011;32083;47.360;9.650;2023-04-03T15:35:49;2.72;;;2.53;;
46377;SDS011;32083;47.360;9.650;2023-04-03T15:38:15;6.40;;;3.60;;
46377;SDS011;32083;47.360;9.650;2023-04-03T15:40:41;4.07;;;2.78;;
46377;SDS011;32083;47.360;9.650;2023-04-03T15:43:08;5.18;;;2.60;;
46377;SDS011;32083;47.360;9.650;2023-04-03T15:45:35;4.68;;;3.35;;
46377;SDS011;32083;47.360;9.650;2023-04-03T15:48:03;4.53;;;2.90;;
46377;SDS011;32083;47.360;9.650;2023-04-03T15:50:30;4.22;;;2.67;;
46377;SDS011;32083;47.360;9.650;2023-04-03T15:52:57;5.05;;;3.42;;
46377;SDS011;32083;47.360;9.650;2023-04-03T15:55:24;3.80;;;3.20;;
46377;SDS011;32083;47.360;9.650;2023-04-03T15:57:51;5.88;;;3.15;;
46377;SDS011;32083;47.360;9.650;2023-04-03T16:00:17;11.40;;;3.75;;
46377;SDS011;32083;47.360;9.650;2023-04-03T16:02:44;3.67;;;3.20;;
46377;SDS011;32083;47.360;9.650;2023-04-03T16:05:12;4.57;;;3.70;;
46377;SDS011;32083;47.360;9.650;2023-04-03T16:07:40;4.25;;;3.28;;
46377;SDS011;32083;47.360;9.650;2023-04-03T16:10:07;4.07;;;3.30;;
46377;SDS011;32083;47.360;9.650;2023-04-03T16:12:35;5.22;;;2.97;;
46377;SDS011;32083;47.360;9.650;2023-04-03T16:15:01;4.40;;;3.20;;
46377;SDS011;32083;47.360;9.650;2023-04-03T16:17:28;3.80;;;3.30;;
46377;SDS011;32083;47.360;9.650;2023-04-03T16:19:55;4.43;;;2.97;;
46377;SDS011;32083;47.360;9.650;2023-04-03T16:22:21;3.60;;;2.90;;
46377;SDS011;32083;47.360;9.650;2023-04-03T16:24:50;3.17;;;2.83;;
46377;SDS011;32083;47.360;9.650;2023-04-03T16:27:16;4.50;;;3.78;;
46377;SDS011;32083;47.360;9.650;2023-04-03T16:29:42;3.17;;;2.85;;
46377;SDS011;32083;47.360;9.650;2023-04-03T16:32:08;4.32;;;3.33;;
46377;SDS011;32083;47.360;9.650;2023-04-03T16:34:34;7.63;;;4.18;;
46377;SDS011;32083;47.360;9.650;2023-04-03T16:37:00;4.90;;;3.40;;
46377;SDS011;32083;47.360;9.650;2023-04-03T16:39:26;4.45;;;3.38;;
46377;SDS011;32083;47.360;9.650;2023-04-03T16:41:52;6.10;;;4.63;;
46377;SDS011;32083;47.360;9.650;2023-04-03T16:44:18;6.45;;;5.75;;
46377;SDS011;32083;47.360;9.650;2023-04-03T16:46:45;5.55;;;5.05;;
46377;SDS011;32083;47.360;9.650;2023-04-03T16:49:10;4.63;;;4.00;;
46377;SDS011;32083;47.360;9.650;2023-04-03T16:51:36;5.50;;;4.70;;
46377;SDS011;32083;47.360;9.650;2023-04-03T16:54:02;4.57;;;4.18;;
46377;SDS011;32083;47.360;9.650;2023-04-03T16:56:28;4.40;;;3.22;;
46377;SDS011;32083;47.360;9.650;2023-04-03T16:58:54;4.55;;;3.85;;
46377;SDS011;32083;47.360;9.650;2023-04-03T17:01:21;4.80;;;3.63;;
46377;SDS011;32083;47.360;9.650;2023-04-03T17:03:47;4.95;;;3.40;;
46377;SDS011;32083;47.360;9.650;2023-04-03T17:06:17;8.55;;;4.10;;
46377;SDS011;32083;47.360;9.650;2023-04-03T17:08:46;4.22;;;3.65;;
46377;SDS011;32083;47.360;9.650;2023-04-03T17:11:13;5.82;;;4.38;;
46377;SDS011;32083;47.360;9.650;2023-04-03T17:13:40;5.90;;;4.45;;
46377;SDS011;32083;47.360;9.650;2023-04-03T17:16:07;3.95;;;3.60;;
46377;SDS011;32083;47.360;9.650;2023-04-03T17:18:36;7.60;;;3.60;;
46377;SDS011;32083;47.360;9.650;2023-04-03T17:21:02;4.85;;;3.35;;
46377;SDS011;32083;47.360;9.650;2023-04-03T17:23:29;3.42;;;3.13;;
46377;SDS011;32083;47.360;9.650;2023-04-03T17:25:56;3.90;;;3.50;;
46377;SDS011;32083;47.360;9.650;2023-04-03T17:28:22;5.53;;;3.28;;
46377;SDS011;32083;47.360;9.650;2023-04-03T17:30:53;4.25;;;3.72;;
46377;SDS011;32083;47.360;9.650;2023-04-03T17:33:23;5.53;;;3.40;;
46377;SDS011;32083;47.360;9.650;2023-04-03T17:35:51;5.50;;;3.53;;
46377;SDS011;32083;47.360;9.650;2023-04-03T17:38:17;4.25;;;3.15;;
46377;SDS011;32083;47.360;9.650;2023-04-03T17:40:43;5.63;;;3.38;;
46377;SDS011;32083;47.360;9.650;2023-04-03T17:43:09;3.35;;;3.00;;
46377;SDS011;32083;47.360;9.650;2023-04-03T17:45:36;3.85;;;3.45;;
46377;SDS011;32083;47.360;9.650;2023-04-03T17:48:02;3.63;;;3.25;;
46377;SDS011;32083;47.360;9.650;2023-04-03T17:50:28;4.03;;;3.28;;
46377;SDS011;32083;47.360;9.650;2023-04-03T17:52:55;5.47;;;2.80;;
46377;SDS011;32083;47.360;9.650;2023-04-03T17:55:21;3.38;;;2.85;;
46377;SDS011;32083;47.360;9.650;2023-04-03T17:57:48;5.45;;;3.53;;
46377;SDS011;32083;47.360;9.650;2023-04-03T18:00:14;6.70;;;3.30;;
46377;SDS011;32083;47.360;9.650;2023-04-03T18:02:41;4.03;;;3.63;;
46377;SDS011;32083;47.360;9.650;2023-04-03T18:05:08;4.85;;;3.70;;
46377;SDS011;32083;47.360;9.650;2023-04-03T18:07:35;5.85;;;4.15;;
46377;SDS011;32083;47.360;9.650;2023-04-03T18:10:05;5.43;;;3.72;;
46377;SDS011;32083;47.360;9.650;2023-04-03T18:12:33;6.88;;;3.78;;
46377;SDS011;32083;47.360;9.650;2023-04-03T18:15:02;3.83;;;2.80;;
46377;SDS011;32083;47.360;9.650;2023-04-03T18:17:29;3.70;;;3.22;;
46377;SDS011;32083;47.360;9.650;2023-04-03T18:19:56;4.18;;;2.78;;
46377;SDS011;32083;47.360;9.650;2023-04-03T18:22:22;5.90;;;3.70;;
46377;SDS011;32083;47.360;9.650;2023-04-03T18:24:49;3.35;;;2.75;;
46377;SDS011;32083;47.360;9.650;2023-04-03T18:27:20;3.63;;;2.90;;
46377;SDS011;32083;47.360;9.650;2023-04-03T18:29:50;5.15;;;3.55;;
46377;SDS011;32083;47.360;9.650;2023-04-03T18:32:19;3.20;;;2.90;;
46377;SDS011;32083;47.360;9.650;2023-04-03T18:34:46;3.53;;;3.08;;
46377;SDS011;32083;47.360;9.650;2023-04-03T18:37:12;4.88;;;3.90;;
46377;SDS011;32083;47.360;9.650;2023-04-03T18:39:39;3.55;;;3.22;;